Terminal Aerodrome Forecast
Issued by NWS

Home | Current Version | Previous Version | Text Only | Print | Product List | Glossary On
Versions: 1 2 3 4 5 6 7 8 9 10 11 12 13 14 15 16
110
FTUS43 KDTX 220410 AAC
TAFMBS
TAF AMD
KMBS 220410Z 2204/2224 20005KT 1/4SM FG OVC003
      TEMPO 2204/2207 3/4SM BR BKN005
     FM221300 21007KT 1SM BR SCT005 BKN015
     FM221500 22010KT 4SM BR SCT015
     FM221700 23012KT P6SM SCT025=

USA.gov is the U.S. government's official web portal to all federal, state and local government web resources and services.